sensor_id;sensor_type;location;lat;lon;timestamp;pressure;altitude;pressure_sealevel;temperature;humidity
15914;BME280;8055;51.930;8.840;2023-05-23T00:00:41;75417.06;;;-145.72;100.00
15914;BME280;8055;51.930;8.840;2023-05-23T00:03:06;75417.06;;;-145.72;100.00
15914;BME280;8055;51.930;8.840;2023-05-23T00:05:32;75415.00;;;-145.72;100.00
15914;BME280;8055;51.930;8.840;2023-05-23T00:07:59;75435.69;;;-145.72;100.00
15914;BME280;8055;51.930;8.840;2023-05-23T00:10:25;75443.97;;;-145.72;100.00
15914;BME280;8055;51.930;8.840;2023-05-23T00:12:50;75458.44;;;-145.72;100.00
15914;BME280;8055;51.930;8.840;2023-05-23T00:15:16;75460.53;;;-145.72;100.00
15914;BME280;8055;51.930;8.840;2023-05-23T00:17:42;75470.88;;;-145.72;100.00
15914;BME280;8055;51.930;8.840;2023-05-23T00:20:09;75485.34;;;-145.72;100.00
15914;BME280;8055;51.930;8.840;2023-05-23T00:22:36;75483.28;;;-145.72;100.00
15914;BME280;8055;51.930;8.840;2023-05-23T00:25:05;75497.75;;;-145.72;100.00
15914;BME280;8055;51.930;8.840;2023-05-23T00:27:30;75497.75;;;-145.72;100.00
15914;BME280;8055;51.930;8.840;2023-05-23T00:29:55;75487.41;;;-145.72;100.00
15914;BME280;8055;51.930;8.840;2023-05-23T00:32:21;75503.97;;;-145.72;100.00
15914;BME280;8055;51.930;8.840;2023-05-23T00:34:46;75506.03;;;-145.72;100.00
15914;BME280;8055;51.930;8.840;2023-05-23T00:37:12;75501.91;;;-145.72;100.00
15914;BME280;8055;51.930;8.840;2023-05-23T00:39:38;75508.09;;;-145.72;100.00
15914;BME280;8055;51.930;8.840;2023-05-23T00:42:04;75508.09;;;-145.72;100.00
15914;BME280;8055;51.930;8.840;2023-05-23T00:44:30;75503.97;;;-145.72;100.00
15914;BME280;8055;51.930;8.840;2023-05-23T00:46:56;75506.03;;;-145.72;100.00
15914;BME280;8055;51.930;8.840;2023-05-23T00:49:22;75516.38;;;-145.72;100.00
15914;BME280;8055;51.930;8.840;2023-05-23T00:51:48;75528.81;;;-145.72;100.00
15914;BME280;8055;51.930;8.840;2023-05-23T00:54:15;75524.66;;;-145.72;100.00
15914;BME280;8055;51.930;8.840;2023-05-23T00:56:42;75541.22;;;-145.72;100.00
15914;BME280;8055;51.930;8.840;2023-05-23T00:59:08;75530.88;;;-145.72;100.00
15914;BME280;8055;51.930;8.840;2023-05-23T01:01:33;75541.22;;;-145.72;100.00
15914;BME280;8055;51.930;8.840;2023-05-23T01:04:02;75532.94;;;-145.72;100.00
15914;BME280;8055;51.930;8.840;2023-05-23T01:06:28;75535.00;;;-145.72;100.00
15914;BME280;8055;51.930;8.840;2023-05-23T01:08:54;75537.06;;;-145.72;100.00
15914;BME280;8055;51.930;8.840;2023-05-23T01:11:32;75526.72;;;-145.72;100.00
15914;BME280;8055;51.930;8.840;2023-05-23T01:14:05;75526.72;;;-145.72;100.00
15914;BME280;8055;51.930;8.840;2023-05-23T01:16:54;75526.72;;;-145.72;100.00
15914;BME280;8055;51.930;8.840;2023-05-23T01:27:56;75532.94;;;-145.72;100.00
15914;BME280;8055;51.930;8.840;2023-05-23T01:30:23;75530.88;;;-145.72;100.00
15914;BME280;8055;51.930;8.840;2023-05-23T01:32:52;75530.88;;;-145.72;100.00
15914;BME280;8055;51.930;8.840;2023-05-23T01:35:24;75532.94;;;-145.72;100.00
15914;BME280;8055;51.930;8.840;2023-05-23T01:37:52;75539.16;;;-145.72;100.00
15914;BME280;8055;51.930;8.840;2023-05-23T01:40:18;75539.16;;;-145.72;100.00
15914;BME280;8055;51.930;8.840;2023-05-23T01:42:43;75528.81;;;-145.72;100.00
15914;BME280;8055;51.930;8.840;2023-05-23T01:45:09;75526.72;;;-145.72;100.00
15914;BME280;8055;51.930;8.840;2023-05-23T01:47:37;75526.72;;;-145.72;100.00
15914;BME280;8055;51.930;8.840;2023-05-23T01:50:03;75532.94;;;-145.72;100.00
15914;BME280;8055;51.930;8.840;2023-05-23T01:52:30;75530.88;;;-145.72;100.00
15914;BME280;8055;51.930;8.840;2023-05-23T01:54:56;75526.72;;;-145.72;100.00
15914;BME280;8055;51.930;8.840;2023-05-23T01:57:23;75532.94;;;-145.72;100.00
15914;BME280;8055;51.930;8.840;2023-05-23T01:59:49;75535.00;;;-145.72;100.00
15914;BME280;8055;51.930;8.840;2023-05-23T02:02:14;75539.16;;;-145.72;100.00
15914;BME280;8055;51.930;8.840;2023-05-23T02:04:39;75537.06;;;-145.72;100.00
15914;BME280;8055;51.930;8.840;2023-05-23T02:07:05;75545.34;;;-145.72;100.00
15914;BME280;8055;51.930;8.840;2023-05-23T02:09:31;75543.28;;;-145.72;100.00
15914;BME280;8055;51.930;8.840;2023-05-23T02:11:56;75543.28;;;-145.72;100.00
15914;BME280;8055;51.930;8.840;2023-05-23T02:14:22;75537.06;;;-145.72;100.00
15914;BME280;8055;51.930;8.840;2023-05-23T02:16:48;75528.81;;;-145.72;100.00
15914;BME280;8055;51.930;8.840;2023-05-23T02:19:13;75530.88;;;-145.72;100.00
15914;BME280;8055;51.930;8.840;2023-05-23T02:21:38;75535.00;;;-145.72;100.00
15914;BME280;8055;51.930;8.840;2023-05-23T02:24:04;75543.28;;;-145.72;100.00
15914;BME280;8055;51.930;8.840;2023-05-23T02:26:29;75545.34;;;-145.72;100.00
15914;BME280;8055;51.930;8.840;2023-05-23T02:28:55;75553.63;;;-145.72;100.00
15914;BME280;8055;51.930;8.840;2023-05-23T02:31:20;75561.91;;;-145.72;100.00
15914;BME280;8055;51.930;8.840;2023-05-23T02:33:46;75563.97;;;-145.72;100.00
15914;BME280;8055;51.930;8.840;2023-05-23T02:36:11;75568.13;;;-145.72;100.00
15914;BME280;8055;51.930;8.840;2023-05-23T02:38:36;75568.13;;;-145.72;100.00
15914;BME280;8055;51.930;8.840;2023-05-23T02:41:03;75572.25;;;-145.72;100.00
15914;BME280;8055;51.930;8.840;2023-05-23T02:43:28;75586.72;;;-145.72;100.00
15914;BME280;8055;51.930;8.840;2023-05-23T02:45:54;75592.94;;;-145.72;100.00
15914;BME280;8055;51.930;8.840;2023-05-23T02:48:19;75599.16;;;-145.72;100.00
15914;BME280;8055;51.930;8.840;2023-05-23T02:50:44;75617.78;;;-145.72;100.00
15914;BME280;8055;51.930;8.840;2023-05-23T02:53:10;75615.69;;;-145.72;100.00
15914;BME280;8055;51.930;8.840;2023-05-23T02:55:35;75626.06;;;-145.72;100.00
15914;BME280;8055;51.930;8.840;2023-05-23T02:58:02;75632.25;;;-145.72;100.00
15914;BME280;8055;51.930;8.840;2023-05-23T03:00:30;75638.47;;;-145.72;100.00
15914;BME280;8055;51.930;8.840;2023-05-23T03:02:57;75638.47;;;-145.72;100.00
15914;BME280;8055;51.930;8.840;2023-05-23T03:05:22;75652.94;;;-145.72;100.00
15914;BME280;8055;51.930;8.840;2023-05-23T03:07:48;75665.38;;;-145.72;100.00
15914;BME280;8055;51.930;8.840;2023-05-23T03:10:13;75667.44;;;-145.72;100.00
15914;BME280;8055;51.930;8.840;2023-05-23T03:12:38;75667.44;;;-145.72;100.00
15914;BME280;8055;51.930;8.840;2023-05-23T03:15:05;75673.63;;;-145.72;100.00
15914;BME280;8055;51.930;8.840;2023-05-23T03:17:30;75681.91;;;-145.72;100.00
15914;BME280;8055;51.930;8.840;2023-05-23T03:19:56;75679.84;;;-145.72;100.00
15914;BME280;8055;51.930;8.840;2023-05-23T03:22:21;75675.72;;;-145.72;100.00
15914;BME280;8055;51.930;8.840;2023-05-23T03:24:46;75679.84;;;-145.72;100.00
15914;BME280;8055;51.930;8.840;2023-05-23T03:27:12;75671.56;;;-145.72;100.00
15914;BME280;8055;51.930;8.840;2023-05-23T03:29:38;75671.56;;;-145.72;100.00
15914;BME280;8055;51.930;8.840;2023-05-23T03:32:03;75681.91;;;-145.72;100.00
15914;BME280;8055;51.930;8.840;2023-05-23T03:34:29;75677.78;;;-145.72;100.00
15914;BME280;8055;51.930;8.840;2023-05-23T03:36:57;75681.91;;;-145.72;100.00
15914;BME280;8055;51.930;8.840;2023-05-23T03:39:22;75681.91;;;-145.72;100.00
15914;BME280;8055;51.930;8.840;2023-05-23T03:41:48;75688.13;;;-145.72;100.00
15914;BME280;8055;51.930;8.840;2023-05-23T03:44:14;75686.06;;;-145.72;100.00
15914;BME280;8055;51.930;8.840;2023-05-23T03:46:39;75681.91;;;-145.72;100.00
15914;BME280;8055;51.930;8.840;2023-05-23T03:49:04;75681.91;;;-145.72;100.00
15914;BME280;8055;51.930;8.840;2023-05-23T03:51:30;75679.84;;;-145.72;100.00
15914;BME280;8055;51.930;8.840;2023-05-23T03:53:55;75681.91;;;-145.72;100.00
15914;BME280;8055;51.930;8.840;2023-05-23T03:56:21;75681.91;;;-145.72;100.00
15914;BME280;8055;51.930;8.840;2023-05-23T03:58:47;75679.84;;;-145.72;100.00
15914;BME280;8055;51.930;8.840;2023-05-23T04:01:12;75686.06;;;-145.72;100.00
15914;BME280;8055;51.930;8.840;2023-05-23T04:03:38;75684.00;;;-145.72;100.00
15914;BME280;8055;51.930;8.840;2023-05-23T04:06:03;75681.91;;;-145.72;100.00
15914;BME280;8055;51.930;8.840;2023-05-23T04:08:29;75686.06;;;-145.72;100.00
15914;BME280;8055;51.930;8.840;2023-05-23T04:10:58;75692.25;;;-145.72;100.00
15914;BME280;8055;51.930;8.840;2023-05-23T04:13:24;75686.06;;;-145.72;100.00
15914;BME280;8055;51.930;8.840;2023-05-23T04:15:50;75692.25;;;-145.72;100.00
15914;BME280;8055;51.930;8.840;2023-05-23T04:18:17;75698.47;;;-145.72;100.00
15914;BME280;8055;51.930;8.840;2023-05-23T04:20:42;75700.53;;;-145.72;100.00
15914;BME280;8055;51.930;8.840;2023-05-23T04:23:07;75692.25;;;-145.72;100.00
15914;BME280;8055;51.930;8.840;2023-05-23T04:25:33;75692.25;;;-145.72;100.00
15914;BME280;8055;51.930;8.840;2023-05-23T04:27:59;75696.41;;;-145.72;100.00
15914;BME280;8055;51.930;8.840;2023-05-23T04:30:25;75688.13;;;-145.72;100.00
15914;BME280;8055;51.930;8.840;2023-05-23T04:32:50;75692.25;;;-145.72;100.00
15914;BME280;8055;51.930;8.840;2023-05-23T04:35:16;75686.06;;;-145.72;100.00
15914;BME280;8055;51.930;8.840;2023-05-23T04:37:41;75681.91;;;-145.72;100.00
15914;BME280;8055;51.930;8.840;2023-05-23T04:40:07;75692.25;;;-145.72;100.00
15914;BME280;8055;51.930;8.840;2023-05-23T04:42:33;75696.41;;;-145.72;100.00
15914;BME280;8055;51.930;8.840;2023-05-23T04:44:58;75692.25;;;-145.72;100.00
15914;BME280;8055;51.930;8.840;2023-05-23T04:47:26;75684.00;;;-145.72;100.00
15914;BME280;8055;51.930;8.840;2023-05-23T04:49:55;75690.19;;;-145.72;100.00
15914;BME280;8055;51.930;8.840;2023-05-23T04:52:21;75684.00;;;-145.72;100.00
15914;BME280;8055;51.930;8.840;2023-05-23T04:54:47;75686.06;;;-145.72;100.00
15914;BME280;8055;51.930;8.840;2023-05-23T04:57:13;75686.06;;;-145.72;100.00
15914;BME280;8055;51.930;8.840;2023-05-23T04:59:38;75686.06;;;-145.72;100.00
15914;BME280;8055;51.930;8.840;2023-05-23T05:02:04;75679.84;;;-145.72;100.00
15914;BME280;8055;51.930;8.840;2023-05-23T05:04:30;75684.00;;;-145.72;100.00
15914;BME280;8055;51.930;8.840;2023-05-23T05:06:56;75684.00;;;-145.72;100.00
15914;BME280;8055;51.930;8.840;2023-05-23T05:09:22;75692.25;;;-145.72;100.00
15914;BME280;8055;51.930;8.840;2023-05-23T05:11:47;75677.78;;;-145.72;100.00
15914;BME280;8055;51.930;8.840;2023-05-23T05:14:13;75677.78;;;-145.72;100.00
15914;BME280;8055;51.930;8.840;2023-05-23T05:16:38;75675.72;;;-145.72;100.00
15914;BME280;8055;51.930;8.840;2023-05-23T05:19:04;75679.84;;;-145.72;100.00
15914;BME280;8055;51.930;8.840;2023-05-23T05:21:29;75675.72;;;-145.72;100.00
15914;BME280;8055;51.930;8.840;2023-05-23T05:23:55;75677.78;;;-145.72;100.00
15914;BME280;8055;51.930;8.840;2023-05-23T05:26:22;75675.72;;;-145.72;100.00
15914;BME280;8055;51.930;8.840;2023-05-23T05:28:47;75671.56;;;-145.72;100.00
15914;BME280;8055;51.930;8.840;2023-05-23T05:31:13;75684.00;;;-145.72;100.00
15914;BME280;8055;51.930;8.840;2023-05-23T05:33:40;75673.63;;;-145.72;100.00
15914;BME280;8055;51.930;8.840;2023-05-23T05:36:06;75677.78;;;-145.72;100.00
15914;BME280;8055;51.930;8.840;2023-05-23T05:38:32;75673.63;;;-145.72;100.00
15914;BME280;8055;51.930;8.840;2023-05-23T05:40:57;75671.56;;;-145.72;100.00
15914;BME280;8055;51.930;8.840;2023-05-23T05:43:25;75677.78;;;-145.72;100.00
15914;BME280;8055;51.930;8.840;2023-05-23T05:45:50;75677.78;;;-145.72;100.00
15914;BME280;8055;51.930;8.840;2023-05-23T05:48:16;75667.44;;;-145.72;100.00
15914;BME280;8055;51.930;8.840;2023-05-23T05:50:42;75673.63;;;-145.72;100.00
15914;BME280;8055;51.930;8.840;2023-05-23T05:53:10;75663.28;;;-145.72;100.00
15914;BME280;8055;51.930;8.840;2023-05-23T05:55:35;75657.09;;;-145.72;100.00
15914;BME280;8055;51.930;8.840;2023-05-23T05:58:00;75659.16;;;-145.72;100.00
15914;BME280;8055;51.930;8.840;2023-05-23T06:00:26;75659.16;;;-145.72;100.00
15914;BME280;8055;51.930;8.840;2023-05-23T06:02:51;75669.50;;;-145.72;100.00
15914;BME280;8055;51.930;8.840;2023-05-23T06:05:21;75671.56;;;-145.72;100.00
15914;BME280;8055;51.930;8.840;2023-05-23T06:07:48;75673.63;;;-145.72;100.00
15914;BME280;8055;51.930;8.840;2023-05-23T06:10:14;75673.63;;;-145.72;100.00
15914;BME280;8055;51.930;8.840;2023-05-23T06:12:39;75681.91;;;-145.72;100.00
15914;BME280;8055;51.930;8.840;2023-05-23T06:15:05;75684.00;;;-145.72;100.00
15914;BME280;8055;51.930;8.840;2023-05-23T06:17:31;75659.16;;;-145.72;100.00
15914;BME280;8055;51.930;8.840;2023-05-23T06:19:56;75675.72;;;-145.72;100.00
15914;BME280;8055;51.930;8.840;2023-05-23T06:22:22;75675.72;;;-145.72;100.00
15914;BME280;8055;51.930;8.840;2023-05-23T06:24:47;75675.72;;;-145.72;100.00
15914;BME280;8055;51.930;8.840;2023-05-23T06:27:12;75684.00;;;-145.72;100.00
15914;BME280;8055;51.930;8.840;2023-05-23T06:29:38;75677.78;;;-145.72;100.00
15914;BME280;8055;51.930;8.840;2023-05-23T06:32:04;75667.44;;;-145.72;100.00
15914;BME280;8055;51.930;8.840;2023-05-23T06:34:30;75679.84;;;-145.72;100.00
15914;BME280;8055;51.930;8.840;2023-05-23T06:36:55;75675.72;;;-145.72;100.00
15914;BME280;8055;51.930;8.840;2023-05-23T06:39:20;75677.78;;;-145.72;100.00
15914;BME280;8055;51.930;8.840;2023-05-23T06:41:46;75675.72;;;-145.72;100.00
15914;BME280;8055;51.930;8.840;2023-05-23T06:44:12;75684.00;;;-145.72;100.00
15914;BME280;8055;51.930;8.840;2023-05-23T06:46:37;75690.19;;;-145.72;100.00
15914;BME280;8055;51.930;8.840;2023-05-23T06:49:03;75690.19;;;-145.72;100.00
15914;BME280;8055;51.930;8.840;2023-05-23T06:51:28;75688.13;;;-145.72;100.00
15914;BME280;8055;51.930;8.840;2023-05-23T06:53:53;75686.06;;;-145.72;100.00
15914;BME280;8055;51.930;8.840;2023-05-23T06:56:24;75692.25;;;-145.72;100.00
15914;BME280;8055;51.930;8.840;2023-05-23T06:58:50;75710.88;;;-145.72;100.00
15914;BME280;8055;51.930;8.840;2023-05-23T07:01:15;75710.88;;;-145.72;100.00
15914;BME280;8055;51.930;8.840;2023-05-23T07:03:41;75729.50;;;-145.72;100.00
15914;BME280;8055;51.930;8.840;2023-05-23T07:06:08;75733.66;;;-145.72;100.00
15914;BME280;8055;51.930;8.840;2023-05-23T07:08:34;75731.56;;;-145.72;100.00
15914;BME280;8055;51.930;8.840;2023-05-23T07:11:00;75756.41;;;-145.72;100.00
15914;BME280;8055;51.930;8.840;2023-05-23T07:13:25;75754.34;;;-145.72;100.00
15914;BME280;8055;51.930;8.840;2023-05-23T07:15:51;75766.75;;;-145.72;100.00
15914;BME280;8055;51.930;8.840;2023-05-23T07:18:16;75760.53;;;-145.72;100.00
15914;BME280;8055;51.930;8.840;2023-05-23T07:20:42;75775.03;;;-145.72;100.00
15914;BME280;8055;51.930;8.840;2023-05-23T07:23:07;75768.81;;;-145.72;100.00
15914;BME280;8055;51.930;8.840;2023-05-23T07:25:32;75785.38;;;-145.72;100.00
15914;BME280;8055;51.930;8.840;2023-05-23T07:27:58;75791.59;;;-145.72;100.00
15914;BME280;8055;51.930;8.840;2023-05-23T07:30:23;75801.94;;;-145.72;100.00
15914;BME280;8055;51.930;8.840;2023-05-23T07:32:49;75810.22;;;-145.72;100.00
15914;BME280;8055;51.930;8.840;2023-05-23T07:35:17;75808.13;;;-145.72;100.00
15914;BME280;8055;51.930;8.840;2023-05-23T07:37:42;75804.00;;;-145.72;100.00
15914;BME280;8055;51.930;8.840;2023-05-23T07:40:08;75810.22;;;-145.72;100.00
15914;BME280;8055;51.930;8.840;2023-05-23T07:42:34;75820.56;;;-145.72;100.00
15914;BME280;8055;51.930;8.840;2023-05-23T07:45:00;75837.09;;;-145.72;100.00
15914;BME280;8055;51.930;8.840;2023-05-23T07:47:26;75832.97;;;-145.72;100.00
15914;BME280;8055;51.930;8.840;2023-05-23T07:49:52;75851.59;;;-145.72;100.00
15914;BME280;8055;51.930;8.840;2023-05-23T07:52:17;75859.88;;;-145.72;100.00
15914;BME280;8055;51.930;8.840;2023-05-23T07:54:43;75861.94;;;-145.72;100.00
15914;BME280;8055;51.930;8.840;2023-05-23T07:57:08;75866.06;;;-145.72;100.00
15914;BME280;8055;51.930;8.840;2023-05-23T07:59:34;75876.44;;;-145.72;100.00
15914;BME280;8055;51.930;8.840;2023-05-23T08:02:00;75895.03;;;-145.72;100.00
15914;BME280;8055;51.930;8.840;2023-05-23T08:04:27;75899.19;;;-145.72;100.00
15914;BME280;8055;51.930;8.840;2023-05-23T08:06:53;75907.47;;;-145.72;100.00
15914;BME280;8055;51.930;8.840;2023-05-23T08:09:20;75915.75;;;-145.72;100.00
15914;BME280;8055;51.930;8.840;2023-05-23T08:11:45;75924.03;;;-145.72;100.00
15914;BME280;8055;51.930;8.840;2023-05-23T08:14:11;75944.72;;;-145.72;100.00
15914;BME280;8055;51.930;8.840;2023-05-23T08:16:36;75955.06;;;-145.72;100.00
15914;BME280;8055;51.930;8.840;2023-05-23T08:19:02;75959.19;;;-145.72;100.00
15914;BME280;8055;51.930;8.840;2023-05-23T08:21:27;75967.47;;;-145.72;100.00
15914;BME280;8055;51.930;8.840;2023-05-23T08:23:53;75969.53;;;-145.72;100.00
15914;BME280;8055;51.930;8.840;2023-05-23T08:26:18;75986.09;;;-145.72;100.00
15914;BME280;8055;51.930;8.840;2023-05-23T08:28:43;75994.38;;;-145.72;100.00
15914;BME280;8055;51.930;8.840;2023-05-23T08:31:09;76004.72;;;-145.72;100.00
15914;BME280;8055;51.930;8.840;2023-05-23T08:33:35;75996.44;;;-145.72;100.00
15914;BME280;8055;51.930;8.840;2023-05-23T08:36:01;76013.00;;;-145.72;100.00
15914;BME280;8055;51.930;8.840;2023-05-23T08:38:26;76015.06;;;-145.72;100.00
15914;BME280;8055;51.930;8.840;2023-05-23T08:40:53;76017.13;;;-145.72;100.00
15914;BME280;8055;51.930;8.840;2023-05-23T08:43:20;76021.28;;;-145.72;100.00
15914;BME280;8055;51.930;8.840;2023-05-23T08:45:46;76023.34;;;-145.72;100.00
15914;BME280;8055;51.930;8.840;2023-05-23T08:48:13;76033.69;;;-145.72;100.00
15914;BME280;8055;51.930;8.840;2023-05-23T08:50:45;76023.34;;;-145.72;100.00
15914;BME280;8055;51.930;8.840;2023-05-23T08:53:14;76033.69;;;-145.72;100.00
15914;BME280;8055;51.930;8.840;2023-05-23T08:55:45;76033.69;;;-145.72;100.00
15914;BME280;8055;51.930;8.840;2023-05-23T08:58:12;76044.03;;;-145.72;100.00
15914;BME280;8055;51.930;8.840;2023-05-23T09:00:38;76039.91;;;-145.72;100.00
15914;BME280;8055;51.930;8.840;2023-05-23T09:03:04;76048.19;;;-145.72;100.00
15914;BME280;8055;51.930;8.840;2023-05-23T09:05:29;76041.97;;;-145.72;100.00
15914;BME280;8055;51.930;8.840;2023-05-23T09:07:54;76046.09;;;-145.72;100.00
15914;BME280;8055;51.930;8.840;2023-05-23T09:10:21;76046.09;;;-145.72;100.00
15914;BME280;8055;51.930;8.840;2023-05-23T09:12:46;76041.97;;;-145.72;100.00
15914;BME280;8055;51.930;8.840;2023-05-23T09:15:12;76044.03;;;-145.72;100.00
15914;BME280;8055;51.930;8.840;2023-05-23T09:17:38;76041.97;;;-145.72;100.00
15914;BME280;8055;51.930;8.840;2023-05-23T09:20:12;76031.63;;;-145.72;100.00
15914;BME280;8055;51.930;8.840;2023-05-23T09:22:39;76037.84;;;-145.72;100.00
15914;BME280;8055;51.930;8.840;2023-05-23T09:25:05;76056.47;;;-145.72;100.00
15914;BME280;8055;51.930;8.840;2023-05-23T09:27:31;76056.47;;;-145.72;100.00
15914;BME280;8055;51.930;8.840;2023-05-23T09:29:56;76062.66;;;-145.72;100.00
15914;BME280;8055;51.930;8.840;2023-05-23T09:32:22;76068.88;;;-145.72;100.00
15914;BME280;8055;51.930;8.840;2023-05-23T09:35:01;76058.53;;;-145.72;100.00
15914;BME280;8055;51.930;8.840;2023-05-23T09:37:33;76068.88;;;-145.72;100.00
15914;BME280;8055;51.930;8.840;2023-05-23T09:39:59;76070.94;;;-145.72;100.00
15914;BME280;8055;51.930;8.840;2023-05-23T09:42:30;76064.72;;;-145.72;100.00
15914;BME280;8055;51.930;8.840;2023-05-23T09:44:57;76077.16;;;-145.72;100.00
15914;BME280;8055;51.930;8.840;2023-05-23T09:47:22;76083.34;;;-145.72;100.00
15914;BME280;8055;51.930;8.840;2023-05-23T09:49:48;76075.09;;;-145.72;100.00
15914;BME280;8055;51.930;8.840;2023-05-23T09:52:15;76077.16;;;-145.72;100.00
15914;BME280;8055;51.930;8.840;2023-05-23T09:54:42;76089.56;;;-145.72;100.00
15914;BME280;8055;51.930;8.840;2023-05-23T09:57:09;76093.72;;;-145.72;100.00
15914;BME280;8055;51.930;8.840;2023-05-23T09:59:39;76085.44;;;-145.72;100.00
15914;BME280;8055;51.930;8.840;2023-05-23T10:02:11;76091.63;;;-145.72;100.00
15914;BME280;8055;51.930;8.840;2023-05-23T10:04:38;76093.72;;;-145.72;100.00
15914;BME280;8055;51.930;8.840;2023-05-23T10:07:09;76106.13;;;-145.72;100.00
15914;BME280;8055;51.930;8.840;2023-05-23T10:09:38;76114.41;;;-145.72;100.00
15914;BME280;8055;51.930;8.840;2023-05-23T10:14:42;76122.69;;;-145.72;100.00
15914;BME280;8055;51.930;8.840;2023-05-23T10:17:15;76124.75;;;-145.72;100.00
15914;BME280;8055;51.930;8.840;2023-05-23T10:19:47;76139.22;;;-145.72;100.00
15914;BME280;8055;51.930;8.840;2023-05-23T10:22:15;76149.56;;;-145.72;100.00
15914;BME280;8055;51.930;8.840;2023-05-23T10:24:41;76164.06;;;-145.72;100.00
15914;BME280;8055;51.930;8.840;2023-05-23T10:27:10;76176.47;;;-145.72;100.00
15914;BME280;8055;51.930;8.840;2023-05-23T10:29:36;76168.19;;;-145.72;100.00
15914;BME280;8055;51.930;8.840;2023-05-23T10:32:04;76174.41;;;-145.72;100.00
15914;BME280;8055;51.930;8.840;2023-05-23T10:37:38;76180.63;;;-145.72;100.00
15914;BME280;8055;51.930;8.840;2023-05-23T10:40:33;76184.75;;;-145.72;100.00
15914;BME280;8055;51.930;8.840;2023-05-23T10:45:48;76199.25;;;-145.72;100.00
15914;BME280;8055;51.930;8.840;2023-05-23T10:48:41;76205.44;;;-145.72;100.00
15914;BME280;8055;51.930;8.840;2023-05-23T10:51:11;76199.25;;;-145.72;100.00
15914;BME280;8055;51.930;8.840;2023-05-23T10:53:43;76195.09;;;-145.72;100.00
15914;BME280;8055;51.930;8.840;2023-05-23T10:56:10;76201.31;;;-145.72;100.00
15914;BME280;8055;51.930;8.840;2023-05-23T10:58:43;76199.25;;;-145.72;100.00
15914;BME280;8055;51.930;8.840;2023-05-23T11:01:08;76219.94;;;-145.72;100.00
15914;BME280;8055;51.930;8.840;2023-05-23T11:06:37;76213.72;;;-145.72;100.00
15914;BME280;8055;51.930;8.840;2023-05-23T11:09:09;76203.38;;;-145.72;100.00
15914;BME280;8055;51.930;8.840;2023-05-23T11:16:55;76222.00;;;-145.72;100.00
15914;BME280;8055;51.930;8.840;2023-05-23T11:19:25;76222.00;;;-145.72;100.00
15914;BME280;8055;51.930;8.840;2023-05-23T11:22:01;76201.31;;;-145.72;100.00
15914;BME280;8055;51.930;8.840;2023-05-23T11:24:52;76193.03;;;-145.72;100.00
15914;BME280;8055;51.930;8.840;2023-05-23T11:27:35;76193.03;;;-145.72;100.00
15914;BME280;8055;51.930;8.840;2023-05-23T11:30:15;76193.03;;;-145.72;100.00
15914;BME280;8055;51.930;8.840;2023-05-23T11:32:42;76211.66;;;-145.72;100.00
15914;BME280;8055;51.930;8.840;2023-05-23T11:35:15;76213.72;;;-145.72;100.00
15914;BME280;8055;51.930;8.840;2023-05-23T11:37:40;76224.09;;;-145.72;100.00
15914;BME280;8055;51.930;8.840;2023-05-23T11:40:30;76209.59;;;-145.72;100.00
15914;BME280;8055;51.930;8.840;2023-05-23T11:42:56;76217.88;;;-145.72;100.00
15914;BME280;8055;51.930;8.840;2023-05-23T11:45:22;76188.91;;;-145.72;100.00
15914;BME280;8055;51.930;8.840;2023-05-23T11:47:48;76178.56;;;-145.72;100.00
15914;BME280;8055;51.930;8.840;2023-05-23T11:50:14;76174.41;;;-145.72;100.00
15914;BME280;8055;51.930;8.840;2023-05-23T11:52:40;76162.00;;;-145.72;100.00
15914;BME280;8055;51.930;8.840;2023-05-23T11:55:07;76159.94;;;-145.72;100.00
15914;BME280;8055;51.930;8.840;2023-05-23T11:57:33;76162.00;;;-145.72;100.00
15914;BME280;8055;51.930;8.840;2023-05-23T11:59:58;76170.28;;;-145.72;100.00
15914;BME280;8055;51.930;8.840;2023-05-23T12:02:26;76172.34;;;-145.72;100.00
15914;BME280;8055;51.930;8.840;2023-05-23T12:04:52;76182.69;;;-145.72;100.00
15914;BME280;8055;51.930;8.840;2023-05-23T12:07:20;76195.09;;;-145.72;100.00
15914;BME280;8055;51.930;8.840;2023-05-23T12:09:46;76211.66;;;-145.72;100.00
15914;BME280;8055;51.930;8.840;2023-05-23T12:12:12;76188.91;;;-145.72;100.00
15914;BME280;8055;51.930;8.840;2023-05-23T12:14:38;76157.84;;;-145.72;100.00
15914;BME280;8055;51.930;8.840;2023-05-23T12:17:11;76143.38;;;-145.72;100.00
15914;BME280;8055;51.930;8.840;2023-05-23T12:19:38;76135.09;;;-145.72;100.00
15914;BME280;8055;51.930;8.840;2023-05-23T12:22:06;76122.69;;;-145.72;100.00
15914;BME280;8055;51.930;8.840;2023-05-23T12:24:32;76122.69;;;-145.72;100.00
15914;BME280;8055;51.930;8.840;2023-05-23T12:26:58;76133.03;;;-145.72;100.00
15914;BME280;8055;51.930;8.840;2023-05-23T12:29:31;76122.69;;;-145.72;100.00
15914;BME280;8055;51.930;8.840;2023-05-23T12:32:00;76141.31;;;-145.72;100.00
15914;BME280;8055;51.930;8.840;2023-05-23T12:34:26;76118.53;;;-145.72;100.00
15914;BME280;8055;51.930;8.840;2023-05-23T12:36:59;76126.81;;;-145.72;100.00
15914;BME280;8055;51.930;8.840;2023-05-23T12:39:28;76135.09;;;-145.72;100.00
15914;BME280;8055;51.930;8.840;2023-05-23T12:41:57;76153.72;;;-145.72;100.00
15914;BME280;8055;51.930;8.840;2023-05-23T12:44:31;76133.03;;;-145.72;100.00
15914;BME280;8055;51.930;8.840;2023-05-23T12:46:56;76124.75;;;-145.72;100.00
15914;BME280;8055;51.930;8.840;2023-05-23T12:49:22;76112.31;;;-145.72;100.00
15914;BME280;8055;51.930;8.840;2023-05-23T12:51:47;76122.69;;;-145.72;100.00
15914;BME280;8055;51.930;8.840;2023-05-23T12:54:12;76101.97;;;-145.72;100.00
15914;BME280;8055;51.930;8.840;2023-05-23T12:56:38;76054.38;;;-145.72;100.00
15914;BME280;8055;51.930;8.840;2023-05-23T12:59:03;76031.63;;;-145.72;100.00
15914;BME280;8055;51.930;8.840;2023-05-23T13:01:29;76035.75;;;-145.72;100.00
15914;BME280;8055;51.930;8.840;2023-05-23T13:03:55;76070.94;;;-145.72;100.00